createdAt,value
2018-11-06T00:01:02.665Z,0
2018-11-06T00:02:11.303Z,0
2018-11-06T00:03:19.938Z,0
2018-11-06T00:04:28.576Z,0
2018-11-06T00:05:37.210Z,0
2018-11-06T00:06:46.127Z,0
2018-11-06T00:07:54.761Z,0
2018-11-06T00:09:03.680Z,0
2018-11-06T00:10:12.293Z,0
2018-11-06T00:11:20.936Z,0
2018-11-06T00:12:29.581Z,0
2018-11-06T00:13:38.223Z,0
2018-11-06T00:14:47.131Z,0
2018-11-06T00:15:55.761Z,0
2018-11-06T00:17:04.403Z,0
2018-11-06T00:18:13.050Z,0
2018-11-06T00:19:21.700Z,0
2018-11-06T00:20:30.603Z,0
2018-11-06T00:21:39.243Z,0
2018-11-06T00:22:47.877Z,0
2018-11-06T00:23:56.523Z,0
2018-11-06T00:25:05.152Z,0
2018-11-06T00:26:13.792Z,0
2018-11-06T00:27:22.431Z,0
2018-11-06T00:28:31.083Z,0
2018-11-06T00:29:40.250Z,0
2018-11-06T00:30:48.883Z,0
2018-11-06T00:31:57.527Z,0
2018-11-06T00:33:06.430Z,0
2018-11-06T00:34:15.195Z,0
2018-11-06T00:35:23.715Z,0
2018-11-06T00:36:32.358Z,0
2018-11-06T00:37:40.992Z,0
2018-11-06T00:38:49.637Z,0
2018-11-06T00:39:58.269Z,0
2018-11-06T00:41:06.913Z,0
2018-11-06T00:42:15.541Z,0
2018-11-06T00:43:24.189Z,0
2018-11-06T00:44:32.824Z,0
2018-11-06T00:45:41.467Z,0
2018-11-06T00:46:50.360Z,0
2018-11-06T00:47:58.997Z,0
2018-11-06T00:49:07.642Z,0
2018-11-06T00:50:16.563Z,0
2018-11-06T00:51:25.205Z,0
2018-11-06T00:52:33.833Z,0
2018-11-06T00:53:42.478Z,0
2018-11-06T00:54:51.114Z,0
2018-11-06T00:55:59.765Z,0
2018-11-06T00:57:08.393Z,0
2018-11-06T00:58:17.037Z,0
2018-11-06T00:59:25.668Z,0
2018-11-06T01:00:34.316Z,0
2018-11-06T01:01:42.950Z,0
2018-11-06T01:02:51.852Z,0
2018-11-06T01:04:00.491Z,0
2018-11-06T01:05:09.134Z,0
2018-11-06T01:06:17.770Z,0
2018-11-06T01:07:26.936Z,0
2018-11-06T01:08:35.572Z,0
2018-11-06T01:09:44.209Z,0
2018-11-06T01:10:53.118Z,0
2018-11-06T01:12:01.758Z,0
2018-11-06T01:13:10.405Z,0
2018-11-06T01:14:19.038Z,0
2018-11-06T01:15:27.681Z,0
2018-11-06T01:16:36.317Z,0
2018-11-06T01:17:45.220Z,0
2018-11-06T01:18:54.112Z,0
2018-11-06T01:20:02.756Z,0
2018-11-06T01:21:11.395Z,0
2018-11-06T01:22:20.562Z,0
2018-11-06T01:23:29.472Z,0
2018-11-06T01:24:38.101Z,0
2018-11-06T01:25:46.737Z,0
2018-11-06T01:26:55.379Z,0
2018-11-06T01:28:04.290Z,0
2018-11-06T01:29:12.923Z,0
2018-11-06T01:30:21.830Z,0
2018-11-06T01:31:30.467Z,0
2018-11-06T01:32:39.110Z,0
2018-11-06T01:33:48.008Z,0
2018-11-06T01:34:56.647Z,0
2018-11-06T01:36:05.285Z,0
2018-11-06T01:37:13.927Z,0
2018-11-06T01:38:22.562Z,0
2018-11-06T01:39:31.202Z,0
2018-11-06T01:40:39.836Z,0
2018-11-06T01:41:48.484Z,0
2018-11-06T01:42:57.121Z,0
2018-11-06T01:44:05.765Z,0
2018-11-06T01:45:14.398Z,0
2018-11-06T01:46:23.033Z,0
2018-11-06T01:47:31.678Z,0
2018-11-06T01:48:40.317Z,0
2018-11-06T01:49:48.955Z,0
2018-11-06T01:50:57.590Z,0
2018-11-06T01:52:06.232Z,0
2018-11-06T01:53:14.869Z,0
2018-11-06T01:54:23.505Z,0
2018-11-06T01:55:32.137Z,0
2018-11-06T01:56:40.781Z,0
2018-11-06T01:57:49.690Z,0
2018-11-06T01:58:58.327Z,0
2018-11-06T02:00:06.961Z,0
2018-11-06T02:01:15.601Z,0
2018-11-06T02:02:24.239Z,0
2018-11-06T02:03:32.877Z,0
2018-11-06T02:04:41.514Z,0
2018-11-06T02:05:50.688Z,0
2018-11-06T02:06:59.325Z,0
2018-11-06T02:08:08.219Z,0
2018-11-06T02:09:16.852Z,0
2018-11-06T02:10:25.498Z,0
2018-11-06T02:11:34.136Z,0
2018-11-06T02:12:42.777Z,0
2018-11-06T02:13:51.409Z,0
2018-11-06T02:15:00.055Z,0
2018-11-06T02:16:08.689Z,0
2018-11-06T02:17:17.331Z,0
2018-11-06T02:18:26.223Z,0
2018-11-06T02:19:34.862Z,0
2018-11-06T02:20:43.515Z,0
2018-11-06T02:21:52.417Z,0
2018-11-06T02:23:01.060Z,0
2018-11-06T02:24:09.703Z,0
2018-11-06T02:25:18.606Z,0
2018-11-06T02:26:27.245Z,0
2018-11-06T02:27:35.889Z,0
2018-11-06T02:28:44.526Z,0
2018-11-06T02:29:53.427Z,0
2018-11-06T02:31:02.065Z,0
2018-11-06T02:32:11.200Z,0
2018-11-06T02:33:19.729Z,0
2018-11-06T02:34:28.370Z,0
2018-11-06T02:35:37.005Z,0
2018-11-06T02:36:45.648Z,0
2018-11-06T02:37:54.551Z,0
2018-11-06T02:39:03.188Z,0
2018-11-06T02:40:11.830Z,0
2018-11-06T02:41:20.726Z,0
2018-11-06T02:42:29.370Z,0
2018-11-06T02:43:38.008Z,0
2018-11-06T02:44:46.916Z,0
2018-11-06T02:45:55.838Z,0
2018-11-06T02:47:04.481Z,0
2018-11-06T02:48:13.120Z,0
2018-11-06T02:49:21.757Z,0
2018-11-06T02:50:30.392Z,0
2018-11-06T02:51:39.041Z,0
2018-11-06T02:52:47.675Z,0
2018-11-06T02:53:56.314Z,0
2018-11-06T02:55:04.951Z,0
2018-11-06T02:56:13.593Z,0
2018-11-06T02:57:22.226Z,0
2018-11-06T02:58:30.871Z,0
2018-11-06T02:59:39.772Z,0
2018-11-06T03:00:48.405Z,0
2018-11-06T03:01:57.314Z,0
2018-11-06T03:03:06.221Z,0
2018-11-06T03:04:15.129Z,0
2018-11-06T03:05:24.024Z,0
2018-11-06T03:06:32.938Z,0
2018-11-06T03:07:41.833Z,0
2018-11-06T03:08:50.485Z,0
2018-11-06T03:09:59.120Z,0
2018-11-06T03:11:08.032Z,0
2018-11-06T03:12:16.672Z,0
2018-11-06T03:13:25.839Z,0
2018-11-06T03:14:34.475Z,0
2018-11-06T03:15:43.110Z,0
2018-11-06T03:16:51.798Z,0
2018-11-06T03:18:00.385Z,0
2018-11-06T03:19:09.028Z,0
2018-11-06T03:20:17.668Z,0
2018-11-06T03:21:26.850Z,0
2018-11-06T03:22:35.748Z,0
2018-11-06T03:23:44.401Z,0
2018-11-06T03:24:53.041Z,0
2018-11-06T03:26:01.949Z,0
2018-11-06T03:27:11.097Z,0
2018-11-06T03:28:19.494Z,0
2018-11-06T03:29:28.128Z,0
2018-11-06T03:30:37.311Z,0
2018-11-06T03:31:46.505Z,0
2018-11-06T03:32:55.151Z,0
2018-11-06T03:34:03.795Z,0
2018-11-06T03:35:12.437Z,0
2018-11-06T03:36:21.344Z,0
2018-11-06T03:37:29.973Z,0
2018-11-06T03:38:38.615Z,0
2018-11-06T03:39:47.252Z,0
2018-11-06T03:40:55.897Z,0
2018-11-06T03:42:04.529Z,0
2018-11-06T03:43:13.447Z,0
2018-11-06T03:44:22.080Z,0
2018-11-06T03:45:30.725Z,0
2018-11-06T03:46:39.354Z,0
2018-11-06T03:47:47.994Z,0
2018-11-06T03:48:56.918Z,0
2018-11-06T03:50:05.562Z,0
2018-11-06T03:51:14.460Z,0
2018-11-06T03:52:23.093Z,0
2018-11-06T03:53:31.729Z,0
2018-11-06T03:54:40.634Z,0
2018-11-06T03:55:49.556Z,0
2018-11-06T03:56:58.188Z,0
2018-11-06T03:58:06.833Z,0
2018-11-06T03:59:15.462Z,0
2018-11-06T04:00:24.107Z,0
2018-11-06T04:01:32.746Z,0
2018-11-06T04:02:41.384Z,0
2018-11-06T04:03:50.017Z,0
2018-11-06T04:04:58.668Z,0
2018-11-06T04:06:07.303Z,0
2018-11-06T04:07:15.952Z,0
2018-11-06T04:08:24.592Z,0
2018-11-06T04:09:33.494Z,0
2018-11-06T04:10:42.401Z,0
2018-11-06T04:11:51.316Z,0
2018-11-06T04:13:00.220Z,0
2018-11-06T04:14:09.126Z,0
2018-11-06T04:15:17.766Z,0
2018-11-06T04:16:26.402Z,0
2018-11-06T04:17:35.048Z,0
2018-11-06T04:18:43.692Z,0
2018-11-06T04:19:52.331Z,0
2018-11-06T04:21:01.231Z,0
2018-11-06T04:22:10.409Z,0
2018-11-06T04:23:19.035Z,0
2018-11-06T04:24:27.683Z,0
2018-11-06T04:25:36.320Z,0
2018-11-06T04:26:45.226Z,0
2018-11-06T04:27:53.859Z,0
2018-11-06T04:29:02.502Z,0
2018-11-06T04:30:11.142Z,0
2018-11-06T04:31:19.776Z,0
2018-11-06T04:32:28.422Z,0
2018-11-06T04:33:37.323Z,0
2018-11-06T04:34:45.965Z,0
2018-11-06T04:35:55.127Z,0
2018-11-06T04:37:03.770Z,0
2018-11-06T04:38:12.937Z,0
2018-11-06T04:39:21.574Z,0
2018-11-06T04:40:30.205Z,0
2018-11-06T04:41:38.850Z,0
2018-11-06T04:42:47.751Z,0
2018-11-06T04:43:56.387Z,0
2018-11-06T04:45:05.020Z,0
2018-11-06T04:46:13.660Z,0
2018-11-06T04:47:22.301Z,0
2018-11-06T04:48:30.947Z,0
2018-11-06T04:49:39.588Z,0
2018-11-06T04:50:48.226Z,0
2018-11-06T04:51:57.129Z,0
2018-11-06T04:53:05.770Z,0
2018-11-06T04:54:14.413Z,0
2018-11-06T04:55:23.046Z,0
2018-11-06T04:56:32.213Z,0
2018-11-06T04:57:40.850Z,0
2018-11-06T04:58:49.759Z,0
2018-11-06T04:59:58.388Z,0
2018-11-06T05:01:07.028Z,0
2018-11-06T05:02:15.774Z,0
2018-11-06T05:03:24.313Z,0
2018-11-06T05:04:32.950Z,0
2018-11-06T05:05:41.585Z,0
2018-11-06T05:06:50.311Z,0
2018-11-06T05:07:58.857Z,0
2018-11-06T05:09:07.503Z,0
2018-11-06T05:10:16.138Z,0
2018-11-06T05:11:24.781Z,0
2018-11-06T05:12:33.674Z,0
2018-11-06T05:13:42.321Z,0
2018-11-06T05:14:50.960Z,0
2018-11-06T05:15:59.870Z,0
2018-11-06T05:17:08.765Z,0
2018-11-06T05:18:17.610Z,0
2018-11-06T05:19:26.248Z,0
2018-11-06T05:20:35.149Z,0
2018-11-06T05:21:44.047Z,0
2018-11-06T05:22:52.684Z,0
2018-11-06T05:24:01.331Z,0
2018-11-06T05:25:10.510Z,0
2018-11-06T05:26:19.151Z,0
2018-11-06T05:27:27.916Z,0
2018-11-06T05:28:36.424Z,0
2018-11-06T05:29:45.052Z,0
2018-11-06T05:30:53.702Z,0
2018-11-06T05:32:02.594Z,0
2018-11-06T05:33:11.606Z,0
2018-11-06T05:34:20.497Z,0
2018-11-06T05:35:29.144Z,0
2018-11-06T05:36:37.772Z,0
2018-11-06T05:37:46.413Z,0
2018-11-06T05:38:55.078Z,0
2018-11-06T05:40:03.958Z,0
2018-11-06T05:41:12.861Z,0
2018-11-06T05:42:21.754Z,0
2018-11-06T05:43:30.389Z,0
2018-11-06T05:44:39.025Z,0
2018-11-06T05:45:47.676Z,0
2018-11-06T05:46:56.304Z,0
2018-11-06T05:48:04.945Z,0
2018-11-06T05:49:13.574Z,0
2018-11-06T05:50:22.219Z,0
2018-11-06T05:51:30.851Z,0
2018-11-06T05:52:39.492Z,0
2018-11-06T05:53:48.120Z,0
2018-11-06T05:54:56.772Z,0
2018-11-06T05:56:05.412Z,0
2018-11-06T05:57:14.045Z,0
2018-11-06T05:58:22.693Z,0
2018-11-06T05:59:31.328Z,0
2018-11-06T06:00:40.504Z,0
2018-11-06T06:01:48.975Z,0
2018-11-06T06:02:57.608Z,0
2018-11-06T06:04:06.254Z,0
2018-11-06T06:05:14.886Z,0
2018-11-06T06:06:23.528Z,0
2018-11-06T06:07:32.420Z,0
2018-11-06T06:08:41.067Z,0
2018-11-06T06:09:49.701Z,0
2018-11-06T06:10:58.366Z,0
2018-11-06T06:12:06.971Z,0
2018-11-06T06:13:15.619Z,0
2018-11-06T06:14:24.253Z,0
2018-11-06T06:15:32.888Z,0
2018-11-06T06:16:41.568Z,0
2018-11-06T06:17:50.154Z,0
2018-11-06T06:18:58.795Z,0
2018-11-06T06:20:07.437Z,0
2018-11-06T06:21:16.079Z,0
2018-11-06T06:22:24.757Z,0
2018-11-06T06:23:33.349Z,0
2018-11-06T06:24:41.981Z,0
2018-11-06T06:25:50.625Z,0
2018-11-06T06:26:59.516Z,0
2018-11-06T06:28:08.163Z,5
2018-11-06T06:29:17.056Z,5
2018-11-06T06:30:25.706Z,5
2018-11-06T06:31:34.588Z,5
2018-11-06T06:32:43.228Z,5
2018-11-06T06:33:52.132Z,5
2018-11-06T06:35:01.413Z,5
2018-11-06T06:36:10.279Z,5
2018-11-06T06:37:18.917Z,5
2018-11-06T06:38:27.555Z,5
2018-11-06T06:39:36.191Z,5
2018-11-06T06:40:45.218Z,5
2018-11-06T06:41:53.811Z,5
2018-11-06T06:43:02.461Z,5
2018-11-06T06:44:11.079Z,10
2018-11-06T06:45:19.723Z,10
2018-11-06T06:46:29.337Z,10
2018-11-06T06:47:38.300Z,10
2018-11-06T06:48:46.928Z,10
2018-11-06T06:49:55.575Z,10
2018-11-06T06:51:04.210Z,10
2018-11-06T06:52:12.849Z,10
2018-11-06T06:53:21.476Z,10
2018-11-06T06:54:30.390Z,15
2018-11-06T06:55:38.759Z,15
2018-11-06T06:56:47.398Z,15
2018-11-06T06:57:56.039Z,15
2018-11-06T06:59:04.671Z,15
2018-11-06T07:00:13.309Z,20
2018-11-06T07:01:21.948Z,20
2018-11-06T07:02:30.964Z,20
2018-11-06T07:03:39.530Z,20
2018-11-06T07:04:48.177Z,20
2018-11-06T07:05:57.075Z,20
2018-11-06T07:07:05.716Z,25
2018-11-06T07:08:14.615Z,25
2018-11-06T07:09:23.254Z,25
2018-11-06T07:10:31.892Z,25
2018-11-06T07:11:40.536Z,25
2018-11-06T07:12:49.268Z,30
2018-11-06T07:13:57.811Z,30
2018-11-06T07:15:06.451Z,30
2018-11-06T07:16:15.094Z,30
2018-11-06T07:17:23.735Z,30
2018-11-06T07:18:32.432Z,35
2018-11-06T07:19:41.010Z,35
2018-11-06T07:20:49.645Z,35
2018-11-06T07:21:58.285Z,40
2018-11-06T07:23:06.924Z,40
2018-11-06T07:24:15.560Z,40
2018-11-06T07:25:24.201Z,40
2018-11-06T07:26:32.841Z,45
2018-11-06T07:27:41.481Z,45
2018-11-06T07:28:50.553Z,45
2018-11-06T07:29:59.085Z,45
2018-11-06T07:31:07.723Z,45
2018-11-06T07:32:16.362Z,45
2018-11-06T07:33:25.007Z,45
2018-11-06T07:34:33.736Z,45
2018-11-06T07:35:42.473Z,45
2018-11-06T07:36:51.184Z,50
2018-11-06T07:37:59.822Z,50
2018-11-06T07:39:08.470Z,50
2018-11-06T07:40:17.359Z,50
2018-11-06T07:41:25.998Z,50
2018-11-06T07:42:36.769Z,50
2018-11-06T07:43:45.684Z,50
2018-11-06T07:44:54.318Z,50
2018-11-06T07:46:02.964Z,55
2018-11-06T07:47:11.616Z,55
2018-11-06T07:48:20.243Z,55
2018-11-06T07:49:28.880Z,55
2018-11-06T07:50:37.519Z,55
2018-11-06T07:51:46.158Z,55
2018-11-06T07:52:54.794Z,55
2018-11-06T07:54:03.440Z,55
2018-11-06T07:55:12.339Z,60
2018-11-06T07:56:21.073Z,60
2018-11-06T07:57:29.608Z,60
2018-11-06T07:58:38.249Z,60
2018-11-06T07:59:46.889Z,60
2018-11-06T08:00:55.527Z,60
2018-11-06T08:02:04.167Z,60
2018-11-06T08:03:12.806Z,60
2018-11-06T08:04:21.510Z,65
2018-11-06T08:05:30.081Z,65
2018-11-06T08:06:38.978Z,65
2018-11-06T08:07:47.617Z,65
2018-11-06T08:08:56.257Z,65
2018-11-06T08:10:05.165Z,65
2018-11-06T08:11:13.806Z,70
2018-11-06T08:12:22.440Z,70
2018-11-06T08:13:31.082Z,70
2018-11-06T08:14:39.798Z,75
2018-11-06T08:15:49.055Z,75
2018-11-06T08:16:57.689Z,75
2018-11-06T08:18:06.438Z,75
2018-11-06T08:19:14.967Z,80
2018-11-06T08:20:23.909Z,80
2018-11-06T08:21:32.528Z,80
2018-11-06T08:22:41.168Z,85
2018-11-06T08:23:50.243Z,85
2018-11-06T08:24:58.844Z,90
2018-11-06T08:26:07.479Z,90
2018-11-06T08:27:16.116Z,90
2018-11-06T08:28:24.755Z,95
2018-11-06T08:29:33.411Z,95
2018-11-06T08:30:42.215Z,95
2018-11-06T08:31:51.939Z,95
2018-11-06T08:33:00.226Z,95
2018-11-06T08:34:08.860Z,95
2018-11-06T08:35:17.778Z,95
2018-11-06T08:36:26.464Z,95
2018-11-06T08:37:35.056Z,100
2018-11-06T08:38:43.685Z,100
2018-11-06T08:39:52.327Z,100
2018-11-06T08:41:00.963Z,100
2018-11-06T08:42:09.605Z,105
2018-11-06T08:43:18.239Z,110
2018-11-06T08:44:27.151Z,110
2018-11-06T08:45:36.328Z,115
2018-11-06T08:46:44.968Z,115
2018-11-06T08:47:53.895Z,120
2018-11-06T08:49:02.510Z,120
2018-11-06T08:50:11.419Z,120
2018-11-06T08:51:20.061Z,120
2018-11-06T08:52:28.702Z,120
2018-11-06T08:53:37.336Z,125
2018-11-06T08:54:46.107Z,120
2018-11-06T08:55:54.614Z,140
2018-11-06T08:57:03.261Z,130
2018-11-06T08:58:11.890Z,130
2018-11-06T08:59:20.531Z,130
2018-11-06T09:00:29.168Z,130
2018-11-06T09:01:37.822Z,135
2018-11-06T09:02:46.512Z,140
2018-11-06T09:03:55.619Z,145
2018-11-06T09:05:04.564Z,145
2018-11-06T09:06:13.203Z,145
2018-11-06T09:07:21.856Z,150
2018-11-06T09:08:30.764Z,155
2018-11-06T09:09:39.408Z,155
2018-11-06T09:10:48.038Z,150
2018-11-06T09:11:56.696Z,130
2018-11-06T09:13:05.324Z,135
2018-11-06T09:14:13.967Z,140
2018-11-06T09:15:22.598Z,150
2018-11-06T09:16:31.249Z,160
2018-11-06T09:17:39.888Z,160
2018-11-06T09:18:48.794Z,160
2018-11-06T09:19:57.425Z,160
2018-11-06T09:21:06.067Z,160
2018-11-06T09:22:14.715Z,160
2018-11-06T09:23:23.355Z,165
2018-11-06T09:24:31.997Z,170
2018-11-06T09:25:40.628Z,170
2018-11-06T09:26:49.545Z,170
2018-11-06T09:27:58.176Z,175
2018-11-06T09:29:07.099Z,175
2018-11-06T09:30:15.725Z,180
2018-11-06T09:31:24.371Z,175
2018-11-06T09:32:33.004Z,170
2018-11-06T09:33:41.659Z,170
2018-11-06T09:34:50.291Z,165
2018-11-06T09:35:58.937Z,160
2018-11-06T09:37:07.576Z,155
2018-11-06T09:38:16.226Z,150
2018-11-06T09:39:24.865Z,145
2018-11-06T09:40:33.504Z,145
2018-11-06T09:41:42.400Z,135
2018-11-06T09:42:51.057Z,130
2018-11-06T09:43:59.705Z,125
2018-11-06T09:45:08.353Z,130
2018-11-06T09:46:16.988Z,135
2018-11-06T09:47:25.616Z,120
2018-11-06T09:48:34.278Z,115
2018-11-06T09:49:42.906Z,110
2018-11-06T09:50:51.547Z,105
2018-11-06T09:52:00.252Z,105
2018-11-06T09:53:08.819Z,100
2018-11-06T09:54:17.462Z,105
2018-11-06T09:55:26.099Z,105
2018-11-06T09:56:34.754Z,105
2018-11-06T09:57:43.541Z,110
2018-11-06T09:58:52.180Z,115
2018-11-06T10:00:01.317Z,115
2018-11-06T10:01:10.288Z,105
2018-11-06T10:02:19.519Z,105
2018-11-06T10:03:28.156Z,105
2018-11-06T10:04:37.065Z,115
2018-11-06T10:05:45.960Z,120
2018-11-06T10:06:55.384Z,120
2018-11-06T10:08:04.583Z,120
2018-11-06T10:09:13.571Z,125
2018-11-06T10:10:22.154Z,105
2018-11-06T10:11:30.863Z,115
2018-11-06T10:12:39.805Z,120
2018-11-06T10:13:48.448Z,120
2018-11-06T10:14:57.079Z,120
2018-11-06T10:16:05.993Z,120
2018-11-06T10:17:14.638Z,120
2018-11-06T10:18:23.284Z,125
2018-11-06T10:19:31.929Z,130
2018-11-06T10:20:40.561Z,125
2018-11-06T10:21:49.206Z,130
2018-11-06T10:22:57.844Z,125
2018-11-06T10:24:06.502Z,130
2018-11-06T10:25:15.135Z,125
2018-11-06T10:26:24.051Z,130
2018-11-06T10:27:32.963Z,130
2018-11-06T10:28:41.873Z,125
2018-11-06T10:29:50.769Z,130
2018-11-06T10:30:59.419Z,120
2018-11-06T10:32:08.109Z,125
2018-11-06T10:33:16.713Z,125
2018-11-06T10:34:25.353Z,130
2018-11-06T10:35:33.993Z,130
2018-11-06T10:36:42.897Z,130
2018-11-06T10:37:51.585Z,145
2018-11-06T10:39:00.501Z,155
2018-11-06T10:40:09.138Z,150
2018-11-06T10:41:17.784Z,150
2018-11-06T10:42:26.417Z,140
2018-11-06T10:43:35.098Z,135
2018-11-06T10:44:43.708Z,135
2018-11-06T10:45:52.356Z,140
2018-11-06T10:47:00.991Z,130
2018-11-06T10:48:09.641Z,125
2018-11-06T10:49:18.645Z,125
2018-11-06T10:50:27.287Z,130
2018-11-06T10:51:35.929Z,120
2018-11-06T10:52:44.568Z,115
2018-11-06T10:53:53.211Z,115
2018-11-06T10:55:02.501Z,110
2018-11-06T10:56:11.149Z,110
2018-11-06T10:57:20.976Z,110
2018-11-06T10:58:29.621Z,110
2018-11-06T10:59:40.068Z,110
2018-11-06T11:00:49.949Z,110
2018-11-06T11:01:58.847Z,110
2018-11-06T11:03:07.515Z,110
2018-11-06T11:04:16.921Z,120
2018-11-06T11:05:25.487Z,155
2018-11-06T11:06:34.390Z,140
2018-11-06T11:07:43.036Z,135
2018-11-06T11:08:51.679Z,130
2018-11-06T11:10:00.325Z,135
2018-11-06T11:11:08.967Z,135
2018-11-06T11:12:17.611Z,150
2018-11-06T11:13:26.288Z,150
2018-11-06T11:14:34.894Z,150
2018-11-06T11:15:43.542Z,145
2018-11-06T11:16:52.453Z,150
2018-11-06T11:18:01.093Z,135
2018-11-06T11:19:09.731Z,140
2018-11-06T11:20:18.466Z,150
2018-11-06T11:21:27.028Z,150
2018-11-06T11:22:35.672Z,155
2018-11-06T11:23:44.311Z,150
2018-11-06T11:24:53.224Z,145
2018-11-06T11:26:01.871Z,145
2018-11-06T11:27:10.780Z,135
2018-11-06T11:28:19.678Z,135
2018-11-06T11:29:28.322Z,140
2018-11-06T11:30:36.966Z,145
2018-11-06T11:31:45.609Z,135
2018-11-06T11:32:54.536Z,145
2018-11-06T11:34:03.503Z,145
2018-11-06T11:35:12.201Z,135
2018-11-06T11:36:20.791Z,155
2018-11-06T11:37:29.460Z,145
2018-11-06T11:38:38.075Z,150
2018-11-06T11:39:46.715Z,150
2018-11-06T11:40:55.356Z,140
2018-11-06T11:42:04.279Z,135
2018-11-06T11:43:12.922Z,135
2018-11-06T11:44:21.839Z,135
2018-11-06T11:45:30.523Z,135
2018-11-06T11:46:39.176Z,130
2018-11-06T11:47:47.812Z,125
2018-11-06T11:48:56.455Z,125
2018-11-06T11:50:05.097Z,120
2018-11-06T11:51:13.743Z,120
2018-11-06T11:52:22.403Z,120
2018-11-06T11:53:31.042Z,115
2018-11-06T11:54:39.691Z,120
2018-11-06T11:55:48.324Z,115
2018-11-06T11:56:57.240Z,115
2018-11-06T11:58:05.884Z,115
2018-11-06T11:59:14.536Z,115
2018-11-06T12:00:23.654Z,115
2018-11-06T12:01:32.308Z,115
2018-11-06T12:02:41.472Z,115
2018-11-06T12:03:50.121Z,115
2018-11-06T12:04:59.282Z,120
2018-11-06T12:06:07.928Z,120
2018-11-06T12:07:16.575Z,125
2018-11-06T12:08:25.220Z,125
2018-11-06T12:09:33.865Z,125
2018-11-06T12:10:42.509Z,130
2018-11-06T12:11:51.685Z,130
2018-11-06T12:13:00.332Z,135
2018-11-06T12:14:09.245Z,140
2018-11-06T12:15:18.147Z,140
2018-11-06T12:16:26.792Z,140
2018-11-06T12:17:36.086Z,145
2018-11-06T12:18:44.749Z,150
2018-11-06T12:19:53.646Z,155
2018-11-06T12:21:02.292Z,155
2018-11-06T12:22:10.938Z,155
2018-11-06T12:23:20.115Z,160
2018-11-06T12:24:28.816Z,160
2018-11-06T12:25:37.656Z,160
2018-11-06T12:26:46.308Z,160
2018-11-06T12:27:55.217Z,160
2018-11-06T12:29:04.141Z,160
2018-11-06T12:30:12.782Z,165
2018-11-06T12:31:21.430Z,160
2018-11-06T12:32:30.119Z,165
2018-11-06T12:33:38.722Z,165
2018-11-06T12:34:47.363Z,165
2018-11-06T12:35:56.273Z,165
2018-11-06T12:37:05.350Z,160
2018-11-06T12:38:14.346Z,160
2018-11-06T12:39:22.989Z,160
2018-11-06T12:40:31.639Z,160
2018-11-06T12:41:40.271Z,160
2018-11-06T12:42:49.535Z,160
2018-11-06T12:43:58.120Z,165
2018-11-06T12:45:06.762Z,160
2018-11-06T12:46:15.409Z,160
2018-11-06T12:47:24.043Z,160
2018-11-06T12:48:32.952Z,160
2018-11-06T12:49:41.594Z,160
2018-11-06T12:50:50.245Z,155
2018-11-06T12:51:58.885Z,160
2018-11-06T12:53:07.535Z,160
2018-11-06T12:54:16.184Z,165
2018-11-06T12:55:25.099Z,165
2018-11-06T12:56:33.740Z,155
2018-11-06T12:57:42.385Z,150
2018-11-06T12:58:51.029Z,150
2018-11-06T12:59:59.680Z,150
2018-11-06T13:01:08.579Z,150
2018-11-06T13:02:17.224Z,145
2018-11-06T13:03:25.980Z,145
2018-11-06T13:04:34.507Z,145
2018-11-06T13:05:43.161Z,145
2018-11-06T13:06:51.803Z,140
2018-11-06T13:08:00.447Z,145
2018-11-06T13:09:09.093Z,140
2018-11-06T13:10:17.741Z,145
2018-11-06T13:11:26.384Z,150
2018-11-06T13:12:35.028Z,140
2018-11-06T13:13:43.934Z,140
2018-11-06T13:14:52.582Z,135
2018-11-06T13:16:01.302Z,140
2018-11-06T13:17:10.691Z,135
2018-11-06T13:18:19.668Z,135
2018-11-06T13:19:28.352Z,135
2018-11-06T13:20:36.958Z,140
2018-11-06T13:21:45.871Z,135
2018-11-06T13:22:54.517Z,135
2018-11-06T13:24:03.163Z,130
2018-11-06T13:25:11.802Z,130
2018-11-06T13:26:21.030Z,135
2018-11-06T13:27:29.545Z,130
2018-11-06T13:28:38.187Z,130
2018-11-06T13:29:47.094Z,125
2018-11-06T13:30:55.738Z,125
2018-11-06T13:32:04.749Z,120
2018-11-06T13:33:13.408Z,120
2018-11-06T13:34:22.319Z,115
2018-11-06T13:35:31.026Z,115
2018-11-06T13:36:39.677Z,115
2018-11-06T13:37:48.330Z,115
2018-11-06T13:38:57.501Z,115
2018-11-06T13:40:06.533Z,115
2018-11-06T13:41:15.176Z,115
2018-11-06T13:42:23.965Z,110
2018-11-06T13:43:33.927Z,110
2018-11-06T13:44:43.075Z,105
2018-11-06T13:45:51.615Z,105
2018-11-06T13:47:00.797Z,105
2018-11-06T13:48:09.558Z,100
2018-11-06T13:49:18.466Z,100
2018-11-06T13:50:27.120Z,105
2018-11-06T13:51:35.758Z,100
2018-11-06T13:52:44.413Z,100
2018-11-06T13:53:53.054Z,100
2018-11-06T13:55:01.700Z,100
2018-11-06T13:56:10.344Z,100
2018-11-06T13:57:18.989Z,100
2018-11-06T13:58:27.895Z,95
2018-11-06T13:59:36.537Z,95
2018-11-06T14:00:45.183Z,95
2018-11-06T14:01:53.832Z,95
2018-11-06T14:03:02.740Z,95
2018-11-06T14:04:11.415Z,90
2018-11-06T14:05:20.032Z,90
2018-11-06T14:06:28.677Z,90
2018-11-06T14:07:37.578Z,90
2018-11-06T14:08:46.217Z,90
2018-11-06T14:09:55.133Z,95
2018-11-06T14:11:03.774Z,90
2018-11-06T14:12:12.426Z,90
2018-11-06T14:13:21.063Z,90
2018-11-06T14:14:29.709Z,90
2018-11-06T14:15:38.354Z,90
2018-11-06T14:16:47.003Z,90
2018-11-06T14:17:55.912Z,90
2018-11-06T14:19:04.815Z,85
2018-11-06T14:20:13.460Z,85
2018-11-06T14:21:22.475Z,85
2018-11-06T14:22:31.385Z,85
2018-11-06T14:23:40.029Z,85
2018-11-06T14:24:48.673Z,80
2018-11-06T14:25:57.318Z,80
2018-11-06T14:27:06.313Z,80
2018-11-06T14:28:15.132Z,80
2018-11-06T14:29:23.778Z,80
2018-11-06T14:30:32.428Z,75
2018-11-06T14:31:41.340Z,75
2018-11-06T14:32:49.985Z,70
2018-11-06T14:33:58.625Z,70
2018-11-06T14:35:07.279Z,70
2018-11-06T14:36:16.181Z,70
2018-11-06T14:37:24.833Z,70
2018-11-06T14:38:33.747Z,70
2018-11-06T14:39:42.657Z,65
2018-11-06T14:40:51.297Z,65
2018-11-06T14:41:59.946Z,65
2018-11-06T14:43:08.589Z,60
2018-11-06T14:44:17.277Z,60
2018-11-06T14:45:26.156Z,60
2018-11-06T14:46:35.332Z,60
2018-11-06T14:47:44.002Z,55
2018-11-06T14:48:53.084Z,55
2018-11-06T14:50:01.877Z,55
2018-11-06T14:51:10.784Z,55
2018-11-06T14:52:19.432Z,50
2018-11-06T14:53:28.344Z,50
2018-11-06T14:54:36.986Z,50
2018-11-06T14:55:45.668Z,50
2018-11-06T14:56:54.274Z,50
2018-11-06T14:58:03.179Z,50
2018-11-06T14:59:11.831Z,50
2018-11-06T15:00:20.742Z,45
2018-11-06T15:01:29.662Z,45
2018-11-06T15:02:38.301Z,45
2018-11-06T15:03:46.957Z,40
2018-11-06T15:04:55.593Z,40
2018-11-06T15:06:04.242Z,40
2018-11-06T15:07:12.883Z,40
2018-11-06T15:08:21.804Z,35
2018-11-06T15:09:30.446Z,35
2018-11-06T15:10:39.085Z,35
2018-11-06T15:11:47.727Z,35
2018-11-06T15:12:56.773Z,35
2018-11-06T15:14:05.434Z,30
2018-11-06T15:15:14.071Z,30
2018-11-06T15:16:22.985Z,30
2018-11-06T15:17:31.621Z,30
2018-11-06T15:18:40.274Z,25
2018-11-06T15:19:49.182Z,25
2018-11-06T15:20:58.331Z,25
2018-11-06T15:22:07.519Z,25
2018-11-06T15:23:16.170Z,20
2018-11-06T15:24:25.085Z,20
2018-11-06T15:25:33.726Z,20
2018-11-06T15:26:42.624Z,20
2018-11-06T15:27:51.269Z,20
2018-11-06T15:28:59.918Z,15
2018-11-06T15:30:08.839Z,15
2018-11-06T15:31:17.752Z,15
2018-11-06T15:32:26.470Z,15
2018-11-06T15:33:35.040Z,15
2018-11-06T15:34:43.684Z,10
2018-11-06T15:35:52.335Z,10
2018-11-06T15:37:00.983Z,10
2018-11-06T15:38:09.632Z,10
2018-11-06T15:39:18.289Z,10
2018-11-06T15:40:27.460Z,10
2018-11-06T15:41:36.696Z,10
2018-11-06T15:42:45.299Z,5
2018-11-06T15:43:54.211Z,5
2018-11-06T15:45:02.850Z,5
2018-11-06T15:46:11.762Z,5
2018-11-06T15:47:20.437Z,5
2018-11-06T15:48:29.175Z,5
2018-11-06T15:49:37.732Z,5
2018-11-06T15:50:46.370Z,0
2018-11-06T15:51:55.011Z,0
2018-11-06T15:53:03.657Z,0
2018-11-06T15:54:12.304Z,0
2018-11-06T15:55:20.949Z,0
2018-11-06T15:56:29.852Z,0
2018-11-06T15:57:38.496Z,0
2018-11-06T15:58:47.409Z,0
2018-11-06T15:59:56.306Z,0
2018-11-06T16:01:05.039Z,0
2018-11-06T16:02:13.598Z,0
2018-11-06T16:03:22.248Z,0
2018-11-06T16:04:31.153Z,0
2018-11-06T16:05:40.069Z,0
2018-11-06T16:06:48.711Z,0
2018-11-06T16:07:57.358Z,0
2018-11-06T16:09:06.008Z,0
2018-11-06T16:10:15.455Z,0
2018-11-06T16:11:24.118Z,0
2018-11-06T16:12:32.755Z,0
2018-11-06T16:13:41.408Z,0
2018-11-06T16:14:50.050Z,0
2018-11-06T16:15:58.691Z,0
2018-11-06T16:17:07.327Z,0
2018-11-06T16:18:15.989Z,0
2018-11-06T16:19:24.619Z,0
2018-11-06T16:20:33.261Z,0
2018-11-06T16:21:41.898Z,0
2018-11-06T16:22:50.544Z,0
2018-11-06T16:23:59.196Z,0
2018-11-06T16:25:07.830Z,0